Portada
METAR-TAF:

METAR-TAF

Aeropuertos :

Valencia, España

Aeropuerto de Valencia

latitud: 39-30N, longitud: 000-28W, altitud: 69 m

Observación

El informe se hizo hace 33 minutos, a las 15:30 UTC
Viento 19 kt del oeste-suroeste
Temperatura 31°C
Humedad 14%
Presión 1007 hPa
Visibilidad 10 km o más
Escasas nubes a una altura de 3000 ft

METAR: LEVC 291530Z 25019KT 9999 FEW030 31/M00 Q1007 NOSIG

Hora: 18:03 (16:03 UTC)

Pronóstico

El informe se hizo hace 5 horas y 3 minutos, a las 11:00 UTC
Pronóstico válido del 29 a las 12 UTC al 30 a las 12 UTC
Viento 10 kt del oeste
Visibilidad 10 km o más
Escasas nubes a una altura de 4000 ft
Temporalmente
del 29 a las 12 UTC al 29 a las 18 UTC
Viento 15 kt del oeste con ráfagas de 25 kt
Evolucionando progresivamente
del 29 a las 18 UTC al 29 a las 21 UTC
Viento 4 kt con dirección variable

TAF: LEVC 291100Z 2912/3012 26010KT 9999 FEW040 TX31/2912Z TN18/3006Z TEMPO 2912/2918 27015G25KT BECMG 2918/2921 VRB04KT

Observaciones y pronósticos meteorológicos de más de 4000 aeropuertos (mensajes METAR y TAF).

Los puntos amarillos y rojos representan las estaciones disponibles.

Ponga el ratón en el punto deseado para ver el nombre de la estación.

Haga clic para ver las observaciones y los pronósticos meteorológicos.

Para cambiar el mapa : haga clic en los botones verdes con una cruz de color negro para hacer un zoom, en el botón verde con un guión para alejar o en las flechas verdes para mapas adyacentes.


METAR-TAF: